Time;durP1;ratioP1;P1;durP2;ratioP2;P2;SDS_P1;SDS_P2;PMS_P1;PMS_P2;Temp;Humidity;BMP_temperature;BMP_pressure;BME280_temperature;BME280_humidity;BME280_pressure;Samples;Min_cycle;Max_cycle;Signal;HPM_P1;HPM_P2
2022/10/27 00:25:55;;;;;;;6.10;3.40;;;16.30;83.40;;;;;;5095670;28;20040;-74
2022/10/27 00:28:21;;;;;;;7.60;3.45;;;16.30;83.30;;;;;;5077907;28;20023;-74
2022/10/27 00:30:47;;;;;;;6.03;3.42;;;16.30;83.40;;;;;;5095643;28;20075;-74
2022/10/27 00:33:13;;;;;;;4.63;3.10;;;16.30;84.40;;;;;;5077988;28;20025;-74
2022/10/27 00:35:38;;;;;;;6.13;3.53;;;16.30;83.40;;;;;;5095551;28;20029;-74
2022/10/27 00:38:04;;;;;;;7.35;3.97;;;16.20;83.40;;;;;;5095422;28;20033;-74
2022/10/27 00:40:36;;;;;;;9.20;3.45;;;16.20;83.50;;;;;;5095446;28;20032;-74
2022/10/27 00:43:01;;;;;;;6.80;4.05;;;16.20;83.50;;;;;;5077736;28;20459;-74
2022/10/27 00:45:27;;;;;;;6.47;3.75;;;16.10;83.60;;;;;;5095274;28;20036;-74
2022/10/27 00:47:53;;;;;;;5.93;3.60;;;16.20;83.70;;;;;;5095343;28;20013;-74
2022/10/27 00:50:22;;;;;;;7.28;3.75;;;16.20;83.50;;;;;;5095354;28;20032;-73
2022/10/27 00:52:54;;;;;;;7.97;4.10;;;16.20;83.50;;;;;;5095195;28;20035;-74
2022/10/27 00:55:32;;;;;;;7.65;4.03;;;16.20;83.60;;;;;;5095160;28;20020;-74
2022/10/27 00:58:02;;;;;;;9.80;4.30;;;16.20;83.60;;;;;;5076309;28;20123;-74
2022/10/27 01:00:27;;;;;;;7.07;3.95;;;16.20;83.60;;;;;;5095182;28;20025;-74
2022/10/27 01:02:54;;;;;;;8.90;3.90;;;16.20;83.80;;;;;;5094972;28;20420;-74
2022/10/27 01:05:21;;;;;;;6.70;4.43;;;16.20;83.60;;;;;;5094840;28;20055;-74
2022/10/27 01:07:49;;;;;;;8.43;4.43;;;16.20;83.50;;;;;;5094881;28;20021;-73
2022/10/27 01:10:15;;;;;;;8.77;4.55;;;16.30;83.50;;;;;;5094853;28;20024;-74
2022/10/27 01:12:42;;;;;;;7.97;4.47;;;16.30;83.50;;;;;;5094788;28;20021;-74
2022/10/27 01:15:09;;;;;;;9.60;4.40;;;16.30;83.40;;;;;;5077097;28;20017;-74
2022/10/27 01:17:53;;;;;;;7.88;4.68;;;16.40;83.40;;;;;;5094699;28;20451;-74
2022/10/27 01:20:27;;;;;;;8.00;4.60;;;16.30;83.30;;;;;;5094648;28;20035;-74
2022/10/27 01:23:00;;;;;;;14.02;5.25;;;16.30;83.30;;;;;;5094773;28;20021;-74
2022/10/27 01:25:35;;;;;;;;;;;16.20;83.20;;;;;;5094875;28;20052;-74
2022/10/27 01:28:32;;;;;;;8.43;4.75;;;16.20;83.20;;;;;;5094492;28;19904;-74
2022/10/27 01:31:13;;;;;;;8.93;4.53;;;16.20;83.60;;;;;;5094445;28;20024;-74
2022/10/27 01:33:56;;;;;;;10.85;5.20;;;16.20;83.80;;;;;;5094388;28;20048;-74
2022/10/27 01:36:42;;;;;;;8.55;4.70;;;16.20;84.00;;;;;;5094369;28;20050;-74
2022/10/27 01:39:15;;;;;;;9.27;5.20;;;16.30;84.10;;;;;;5094353;28;20088;-74
2022/10/27 01:41:48;;;;;;;8.52;5.32;;;16.30;84.10;;;;;;5076769;28;20089;-74
2022/10/27 01:44:44;;;;;;;9.25;5.32;;;16.30;84.00;;;;;;5094247;28;20047;-74
2022/10/27 01:47:11;;;;;;;10.85;5.43;;;16.30;83.90;;;;;;5074724;28;20029;-73
2022/10/27 01:49:42;;;;;;;11.30;5.43;;;16.30;84.10;;;;;;5076310;28;20084;-74
2022/10/27 01:52:46;;;;;;;8.10;5.75;;;16.40;84.20;;;;;;5094183;28;20017;-74
2022/10/27 01:55:14;;;;;;;9.10;5.68;;;16.40;84.00;;;;;;5093977;28;20029;-74
2022/10/27 01:57:51;;;;;;;10.32;6.43;;;16.30;84.10;;;;;;5093611;28;20048;-74
2022/10/27 02:00:17;;;;;;;14.60;6.85;;;16.30;84.20;;;;;;5093896;28;20048;-74
2022/10/27 02:02:45;;;;;;;12.27;6.68;;;16.40;84.20;;;;;;5076259;28;20387;-74
2022/10/27 02:05:37;;;;;;;10.48;7.20;;;16.40;84.10;;;;;;5093724;28;20027;-74
2022/10/27 02:08:16;;;;;;;10.95;7.10;;;16.40;84.00;;;;;;5076054;28;20475;-74
2022/10/27 02:11:00;;;;;;;12.98;7.13;;;16.40;84.20;;;;;;5093555;28;20035;-74
2022/10/27 02:13:28;;;;;;;8.80;6.38;;;16.40;84.10;;;;;;5093712;28;20027;-74
2022/10/27 02:15:59;;;;;;;9.98;6.55;;;16.40;84.20;;;;;;5093658;28;20029;-74
2022/10/27 02:18:31;;;;;;;10.25;6.65;;;16.40;84.20;;;;;;5093661;28;20028;-74
2022/10/27 02:21:04;;;;;;;11.18;6.93;;;16.40;84.00;;;;;;5075946;28;20033;-74
2022/10/27 02:23:29;;;;;;;;;;;16.40;83.90;;;;;;5094013;28;20024;-74
2022/10/27 02:26:00;;;;;;;13.57;6.35;;;16.40;83.80;;;;;;5093577;28;19912;-74
2022/10/27 02:28:33;;;;;;;12.10;6.90;;;16.40;84.00;;;;;;5075845;28;20028;-74
2022/10/27 02:30:59;;;;;;;12.50;6.70;;;16.40;83.90;;;;;;5075745;28;20016;-74
2022/10/27 02:33:25;;;;;;;11.23;6.88;;;16.40;83.80;;;;;;5075789;28;20048;-74
2022/10/27 02:35:53;;;;;;;11.52;7.40;;;16.40;83.70;;;;;;5093386;28;20552;-73
2022/10/27 02:38:20;;;;;;;9.60;6.15;;;16.40;83.50;;;;;;5093301;28;20104;-74
2022/10/27 02:40:46;;;;;;;10.68;6.50;;;16.40;83.50;;;;;;5093319;28;20020;-74
2022/10/27 02:43:12;;;;;;;12.00;7.00;;;16.40;83.60;;;;;;5075541;28;20043;-74
2022/10/27 02:45:37;;;;;;;9.57;6.28;;;16.40;83.50;;;;;;5075611;28;20033;-74
2022/10/27 02:48:03;;;;;;;9.48;6.85;;;16.40;83.50;;;;;;5093425;28;20039;-73
2022/10/27 02:50:28;;;;;;;10.32;6.40;;;16.40;83.40;;;;;;5093269;28;20040;-74
2022/10/27 02:52:54;;;;;;;11.63;6.82;;;16.30;84.20;;;;;;5093242;28;20048;-74
2022/10/27 02:55:20;;;;;;;10.80;6.32;;;16.30;83.30;;;;;;5093184;28;20113;-74
2022/10/27 02:57:45;;;;;;;10.57;6.43;;;16.30;83.30;;;;;;5075465;28;20044;-73
2022/10/27 03:00:12;;;;;;;9.55;5.60;;;16.30;83.50;;;;;;5075618;28;20021;-73
2022/10/27 03:02:37;;;;;;;8.50;5.30;;;16.20;83.40;;;;;;5075394;28;20029;-73
2022/10/27 03:05:03;;;;;;;10.65;5.22;;;16.20;83.20;;;;;;5075328;28;20046;-73
2022/10/27 03:07:29;;;;;;;11.35;5.25;;;16.20;83.20;;;;;;5093055;28;20373;-73
2022/10/27 03:09:55;;;;;;;11.00;5.00;;;16.10;83.20;;;;;;5093065;28;20088;-74
2022/10/27 03:12:20;;;;;;;6.95;4.25;;;16.10;83.30;;;;;;5093184;28;20035;-74
2022/10/27 03:14:46;;;;;;;11.70;4.63;;;16.10;83.60;;;;;;5075363;28;20025;-74
2022/10/27 03:17:11;;;;;;;7.78;4.03;;;16.00;83.60;;;;;;5093121;28;20544;-74
2022/10/27 03:19:37;;;;;;;8.38;4.40;;;16.00;83.70;;;;;;5075204;28;20104;-73
2022/10/27 03:22:03;;;;;;;9.73;4.30;;;16.00;83.60;;;;;;5077137;28;20035;-74
2022/10/27 03:24:28;;;;;;;8.43;4.35;;;16.00;83.70;;;;;;5096797;28;20064;-74
2022/10/27 03:26:54;;;;;;;8.10;4.22;;;16.00;83.50;;;;;;5096814;28;20021;-74
2022/10/27 03:29:19;;;;;;;9.88;4.43;;;16.00;83.50;;;;;;5079291;28;20035;-74
2022/10/27 03:31:45;;;;;;;8.23;3.90;;;16.00;83.40;;;;;;5062530;28;20017;-73
2022/10/27 03:34:11;;;;;;;7.30;4.18;;;15.90;83.40;;;;;;5078998;28;20449;-74
2022/10/27 03:36:36;;;;;;;10.00;4.47;;;15.90;83.50;;;;;;5078948;28;20059;-74
2022/10/27 03:39:02;;;;;;;9.40;4.13;;;15.90;83.40;;;;;;5078739;28;20033;-75
2022/10/27 03:41:28;;;;;;;11.05;4.53;;;15.80;83.30;;;;;;5078925;28;20093;-75
2022/10/27 03:43:54;;;;;;;7.47;4.03;;;15.80;83.30;;;;;;5096435;28;20033;-73
2022/10/27 03:46:19;;;;;;;9.55;3.63;;;15.70;83.60;;;;;;5078808;28;20021;-75
2022/10/27 03:48:45;;;;;;;8.05;4.10;;;15.70;83.70;;;;;;5096386;28;20082;-75
2022/10/27 03:51:10;;;;;;;9.02;4.05;;;15.70;83.70;;;;;;5078738;28;20033;-75
2022/10/27 03:53:36;;;;;;;7.65;4.20;;;15.70;83.50;;;;;;5096330;28;20024;-75
2022/10/27 03:56:02;;;;;;;10.45;3.80;;;15.70;83.50;;;;;;5078633;28;20028;-75
2022/10/27 03:58:28;;;;;;;8.18;4.00;;;15.60;83.40;;;;;;5096097;28;20052;-75
2022/10/27 04:00:53;;;;;;;6.03;3.58;;;15.60;83.40;;;;;;5096204;28;20029;-75
2022/10/27 04:03:19;;;;;;;6.45;3.65;;;15.60;83.40;;;;;;5096262;28;20482;-73
2022/10/27 04:05:49;;;;;;;7.47;3.78;;;15.60;83.50;;;;;;5096037;28;20040;-74
2022/10/27 04:08:15;;;;;;;7.70;3.70;;;15.60;83.30;;;;;;5061746;28;20128;-73
2022/10/27 04:10:40;;;;;;;5.70;3.20;;;15.60;83.30;;;;;;5096028;28;20020;-73
2022/10/27 04:13:06;;;;;;;7.88;3.25;;;15.50;83.30;;;;;;5078371;28;20450;-73
2022/10/27 04:15:31;;;;;;;7.57;3.22;;;15.50;83.40;;;;;;5078203;28;20032;-73
2022/10/27 04:17:58;;;;;;;9.80;3.55;;;15.50;83.40;;;;;;5095870;28;20035;-73
2022/10/27 04:20:25;;;;;;;7.30;3.33;;;15.40;83.40;;;;;;5078147;28;20036;-73
2022/10/27 04:22:53;;;;;;;5.35;3.20;;;15.30;83.70;;;;;;5095800;28;20047;-73
2022/10/27 04:25:19;;;;;;;5.78;3.17;;;15.30;83.90;;;;;;5095652;28;20040;-73
2022/10/27 04:27:44;;;;;;;5.47;3.20;;;15.20;84.00;;;;;;5095735;28;20044;-75
2022/10/27 04:30:10;;;;;;;5.43;3.22;;;15.20;84.10;;;;;;5095667;28;20025;-73
2022/10/27 04:32:37;;;;;;;9.15;3.30;;;15.30;84.10;;;;;;5095551;28;20108;-73
2022/10/27 04:35:03;;;;;;;10.25;3.42;;;15.20;83.90;;;;;;5061291;28;20047;-73
2022/10/27 04:37:31;;;;;;;7.63;3.42;;;15.20;84.00;;;;;;5077740;28;20028;-73
2022/10/27 04:39:56;;;;;;;8.55;3.33;;;15.20;84.10;;;;;;5095649;28;20033;-73
2022/10/27 04:42:22;;;;;;;6.72;3.83;;;15.20;84.00;;;;;;5077773;28;20048;-73
2022/10/27 04:44:48;;;;;;;8.90;3.42;;;15.20;84.00;;;;;;5095293;28;20085;-73
2022/10/27 04:47:13;;;;;;;5.90;3.78;;;15.10;84.30;;;;;;5095368;28;20096;-73
2022/10/27 04:49:39;;;;;;;6.93;3.65;;;15.10;84.40;;;;;;5077559;28;20074;-73
2022/10/27 04:52:04;;;;;;;5.15;3.33;;;15.10;84.20;;;;;;5077686;28;20024;-73
2022/10/27 04:54:30;;;;;;;6.75;3.60;;;15.00;84.10;;;;;;5095325;28;20524;-73
2022/10/27 04:56:55;;;;;;;6.35;3.63;;;15.00;84.20;;;;;;5077111;28;20063;-73
2022/10/27 04:59:21;;;;;;;9.02;4.00;;;15.00;84.00;;;;;;5077469;28;20045;-73
2022/10/27 05:01:47;;;;;;;5.80;3.45;;;15.10;83.90;;;;;;5095065;28;20036;-73
2022/10/27 05:04:12;;;;;;;6.53;3.50;;;15.10;83.60;;;;;;5077479;28;20052;-73
2022/10/27 05:06:38;;;;;;;7.18;3.35;;;15.10;83.50;;;;;;5094961;28;20107;-73
2022/10/27 05:09:04;;;;;;;6.47;3.30;;;15.10;83.50;;;;;;5060538;28;20120;-73
2022/10/27 05:11:29;;;;;;;6.95;3.80;;;15.10;83.10;;;;;;5077208;28;20100;-73
2022/10/27 05:13:55;;;;;;;9.57;4.18;;;15.00;83.10;;;;;;5077175;28;20043;-76
2022/10/27 05:16:20;;;;;;;6.55;3.95;;;15.00;83.10;;;;;;5094734;28;20098;-73
2022/10/27 05:18:46;;;;;;;8.93;4.07;;;15.00;83.10;;;;;;5094668;28;20028;-73
2022/10/27 05:21:11;;;;;;;9.80;4.00;;;15.10;83.00;;;;;;5077215;28;20033;-73
2022/10/27 05:23:37;;;;;;;8.55;4.03;;;15.00;82.90;;;;;;5094578;28;20032;-73
2022/10/27 05:26:03;;;;;;;6.50;3.83;;;15.00;83.10;;;;;;5094587;28;20039;-73
2022/10/27 05:28:28;;;;;;;5.45;3.55;;;15.00;83.20;;;;;;5076969;28;20037;-73
2022/10/27 05:30:58;;;;;;;8.55;4.28;;;15.00;83.10;;;;;;5076806;28;20033;-73
2022/10/27 05:33:25;;;;;;;10.48;4.20;;;15.00;83.00;;;;;;5094276;28;20016;-73
2022/10/27 05:35:51;;;;;;;8.18;4.18;;;15.10;82.90;;;;;;5094332;28;20035;-73
2022/10/27 05:38:17;;;;;;;7.47;3.95;;;15.10;82.80;;;;;;5094192;28;20088;-73
2022/10/27 05:40:42;;;;;;;8.93;4.30;;;15.10;82.80;;;;;;5094230;28;20092;-73
2022/10/27 05:43:09;;;;;;;7.38;4.05;;;15.10;82.70;;;;;;5094200;28;20041;-73
2022/10/27 05:45:34;;;;;;;8.02;3.60;;;15.00;82.70;;;;;;5093606;28;20108;-73
2022/10/27 05:48:09;;;;;;;5.93;3.45;;;15.00;82.80;;;;;;5094141;28;20021;-75
2022/10/27 05:50:35;;;;;;;6.38;3.63;;;15.00;82.60;;;;;;5094014;28;20024;-75
2022/10/27 05:53:01;;;;;;;9.20;3.78;;;15.00;82.70;;;;;;5093976;28;20020;-74
2022/10/27 05:55:26;;;;;;;7.32;3.70;;;15.00;82.80;;;;;;5076240;28;20028;-74
2022/10/27 05:57:56;;;;;;;5.50;3.67;;;15.00;82.80;;;;;;5093737;28;20056;-74
2022/10/27 06:00:23;;;;;;;8.48;3.40;;;15.00;82.70;;;;;;5094088;28;20033;-74
2022/10/27 06:02:49;;;;;;;7.35;3.60;;;15.00;82.80;;;;;;5076325;28;20055;-74
2022/10/27 06:05:15;;;;;;;7.35;3.60;;;15.00;82.80;;;;;;5093691;28;20127;-74
2022/10/27 06:07:41;;;;;;;7.70;3.78;;;15.00;82.80;;;;;;5093869;28;20020;-75
2022/10/27 06:10:06;;;;;;;5.78;3.35;;;14.90;82.90;;;;;;5076147;28;20024;-75
2022/10/27 06:12:32;;;;;;;5.90;3.63;;;14.90;83.00;;;;;;5076257;28;20419;-75
2022/10/27 06:14:58;;;;;;;7.90;3.53;;;14.90;83.10;;;;;;5076052;28;20040;-74
2022/10/27 06:17:23;;;;;;;9.77;3.67;;;14.90;83.30;;;;;;5093610;28;20032;-74
2022/10/27 06:19:49;;;;;;;6.97;3.90;;;14.90;83.40;;;;;;5093567;28;20055;-74
2022/10/27 06:22:14;;;;;;;6.55;3.38;;;14.90;83.50;;;;;;5075931;28;20044;-74
2022/10/27 06:24:40;;;;;;;6.97;3.90;;;15.00;83.40;;;;;;5059104;28;20028;-75
2022/10/27 06:27:05;;;;;;;7.20;3.28;;;15.00;83.40;;;;;;5076004;28;20028;-74
2022/10/27 06:29:31;;;;;;;8.82;3.63;;;15.00;83.40;;;;;;5093609;28;20109;-75
2022/10/27 06:31:56;;;;;;;7.25;3.50;;;14.90;83.50;;;;;;5075783;28;20038;-75
2022/10/27 06:34:22;;;;;;;7.97;4.28;;;14.90;83.60;;;;;;5093420;28;20043;-75
2022/10/27 06:36:48;;;;;;;6.80;3.42;;;15.00;83.60;;;;;;5075703;28;20103;-75
2022/10/27 06:39:13;;;;;;;9.23;3.90;;;15.00;83.60;;;;;;5093324;28;20020;-74
2022/10/27 06:41:39;;;;;;;9.60;3.63;;;15.00;83.70;;;;;;5093350;28;20453;-75
2022/10/27 06:44:04;;;;;;;10.10;3.65;;;15.00;83.70;;;;;;5093229;28;20044;-74
2022/10/27 06:46:33;;;;;;;7.38;3.70;;;15.00;83.90;;;;;;5093276;28;20083;-74
2022/10/27 06:48:59;;;;;;;7.15;3.63;;;15.00;84.00;;;;;;5093455;28;20047;-75
2022/10/27 06:51:25;;;;;;;9.60;3.42;;;14.90;84.00;;;;;;5075634;28;20025;-74
2022/10/27 06:53:51;;;;;;;6.03;3.40;;;14.90;84.40;;;;;;5093251;28;20028;-75
2022/10/27 06:56:17;;;;;;;7.47;3.38;;;14.90;84.70;;;;;;5093626;28;20048;-74
2022/10/27 06:58:43;;;;;;;6.50;3.30;;;14.90;84.70;;;;;;5097114;28;20045;-75
2022/10/27 07:01:09;;;;;;;6.50;3.25;;;14.90;85.00;;;;;;5097365;28;20034;-74
2022/10/27 07:03:36;;;;;;;11.45;3.45;;;14.90;85.00;;;;;;5097456;28;20486;-74
2022/10/27 07:06:02;;;;;;;8.32;3.45;;;14.90;85.00;;;;;;5097176;28;20025;-74
2022/10/27 07:08:28;;;;;;;7.57;3.50;;;15.00;85.00;;;;;;5097388;28;20029;-74
2022/10/27 07:10:54;;;;;;;7.60;3.65;;;15.00;85.00;;;;;;5097173;28;20024;-74
2022/10/27 07:13:19;;;;;;;9.10;3.38;;;15.00;85.00;;;;;;5097052;28;20021;-75
2022/10/27 07:15:45;;;;;;;7.40;3.88;;;15.00;85.10;;;;;;5097079;28;20040;-73
2022/10/27 07:18:11;;;;;;;8.10;3.45;;;15.00;85.10;;;;;;5097000;28;20032;-74
2022/10/27 07:20:40;;;;;;;6.35;4.00;;;15.00;85.00;;;;;;5096957;28;20025;-74
2022/10/27 07:23:09;;;;;;;11.02;3.97;;;15.00;85.30;;;;;;5096922;28;20391;-74
2022/10/27 07:25:35;;;;;;;8.80;4.57;;;15.00;85.50;;;;;;5096828;28;20041;-74
2022/10/27 07:28:03;;;;;;;6.13;3.58;;;15.10;85.20;;;;;;5096864;28;20029;-74
2022/10/27 07:30:32;;;;;;;5.93;3.78;;;15.10;85.40;;;;;;5079069;28;20104;-74
2022/10/27 07:32:58;;;;;;;8.48;3.72;;;15.10;85.30;;;;;;5096741;28;20017;-74
2022/10/27 07:35:24;;;;;;;8.77;3.95;;;15.10;85.20;;;;;;5096687;28;20067;-74
2022/10/27 07:37:50;;;;;;;6.55;3.63;;;15.20;85.20;;;;;;5078839;28;20021;-74
2022/10/27 07:40:20;;;;;;;7.05;3.88;;;15.20;85.20;;;;;;5096581;28;20127;-74
2022/10/27 07:42:51;;;;;;;6.70;3.63;;;15.30;85.20;;;;;;5096652;28;20017;-74
2022/10/27 07:45:19;;;;;;;7.55;3.75;;;15.30;85.20;;;;;;5096413;28;20059;-74
2022/10/27 07:47:50;;;;;;;7.25;3.70;;;15.30;85.20;;;;;;5096456;28;20056;-74
2022/10/27 07:50:17;;;;;;;7.22;4.18;;;15.40;85.20;;;;;;5096362;28;20028;-74
2022/10/27 07:52:44;;;;;;;7.90;3.80;;;15.40;85.00;;;;;;5096392;28;20017;-74
2022/10/27 08:01:22;;;;;;;6.80;3.50;;;15.60;84.80;;;;;;653444;22;20300;-92
2022/10/27 08:03:48;;;;;;;6.82;3.63;;;15.60;84.70;;;;;;5031900;28;20079;-91
2022/10/27 08:06:14;;;;;;;7.03;3.58;;;15.70;84.70;;;;;;5036111;28;20549;-89
2022/10/27 08:08:40;;;;;;;6.43;4.30;;;15.80;84.50;;;;;;5035420;28;20018;-91
2022/10/27 08:11:05;;;;;;;6.25;3.28;;;15.90;84.60;;;;;;5019607;28;20052;-91
2022/10/27 08:13:31;;;;;;;6.60;3.63;;;16.10;84.10;;;;;;5019193;28;20021;-91
2022/10/27 08:16:00;;;;;;;7.28;3.65;;;16.20;83.50;;;;;;5019596;28;20033;-91
2022/10/27 08:18:25;;;;;;;7.00;3.28;;;16.30;83.30;;;;;;5019074;28;20576;-92
2022/10/27 08:20:51;;;;;;;7.15;3.35;;;16.50;83.30;;;;;;5020626;28;20128;-90
2022/10/27 08:23:19;;;;;;;7.05;3.40;;;16.60;82.10;;;;;;5019261;28;20107;-91
2022/10/27 08:25:45;;;;;;;6.60;3.50;;;16.70;82.30;;;;;;5018886;28;20034;-90
2022/10/27 08:28:12;;;;;;;7.80;3.78;;;16.80;81.70;;;;;;5035269;28;20502;-91
2022/10/27 08:30:38;;;;;;;8.25;3.45;;;16.90;81.20;;;;;;5018940;28;20123;-91
2022/10/27 08:33:04;;;;;;;6.78;3.10;;;16.90;80.30;;;;;;5035264;28;20049;-91
2022/10/27 08:35:31;;;;;;;6.32;2.95;;;16.90;80.50;;;;;;5035431;28;20083;-87
2022/10/27 08:38:03;;;;;;;6.28;2.95;;;16.90;80.50;;;;;;5002356;28;20026;-91
2022/10/27 08:40:58;;;;;;;6.80;3.00;;;16.90;80.40;;;;;;5035919;28;20022;-91
2022/10/27 08:43:42;;;;;;;7.13;3.17;;;17.00;80.70;;;;;;5018836;28;20029;-91
2022/10/27 08:46:37;;;;;;;6.82;2.55;;;16.90;80.60;;;;;;5018387;28;20124;-91
2022/10/27 08:49:10;;;;;;;5.97;2.70;;;16.90;80.40;;;;;;5035052;28;20025;-91
2022/10/27 08:51:37;;;;;;;9.93;3.25;;;16.90;80.10;;;;;;5035059;28;20084;-91
2022/10/27 08:54:04;;;;;;;9.13;2.95;;;16.90;81.30;;;;;;5018692;28;20030;-91
2022/10/27 08:56:38;;;;;;;5.85;3.92;;;17.00;80.80;;;;;;5035158;28;20026;-90
2022/10/27 08:59:04;;;;;;;7.32;3.10;;;17.20;81.20;;;;;;5035060;28;20057;-89
2022/10/27 09:01:59;;;;;;;7.25;3.15;;;17.40;79.80;;;;;;5005203;28;20062;-89
2022/10/27 09:05:30;;;;;;;9.15;3.60;;;17.60;80.00;;;;;;5014993;28;20041;-90
2022/10/27 09:08:11;;;;;;;9.35;2.80;;;17.80;79.60;;;;;;4955788;29;20485;-89
2022/10/27 09:10:48;;;;;;;6.85;2.72;;;18.00;79.30;;;;;;4955844;29;20038;-90
2022/10/27 09:13:25;;;;;;;8.88;2.53;;;18.20;78.80;;;;;;5005441;28;20034;-89
2022/10/27 09:15:54;;;;;;;6.00;2.42;;;18.40;77.40;;;;;;5014904;28;20044;-89
2022/10/27 09:18:33;;;;;;;5.13;2.58;;;18.50;77.10;;;;;;5014900;28;20037;-89
2022/10/27 09:21:03;;;;;;;6.55;2.50;;;18.40;76.40;;;;;;5012293;28;20535;-90
2022/10/27 09:23:33;;;;;;;4.57;2.30;;;18.50;76.50;;;;;;5013847;28;20124;-89
2022/10/27 09:25:59;;;;;;;6.20;2.00;;;18.50;76.00;;;;;;5014407;28;20026;-89
2022/10/27 09:28:35;;;;;;;8.63;3.17;;;18.50;75.50;;;;;;4998578;28;20026;-90
2022/10/27 09:31:03;;;;;;;4.93;2.65;;;18.60;76.20;;;;;;5014605;28;20018;-90
2022/10/27 09:33:32;;;;;;;8.45;2.63;;;18.70;76.10;;;;;;5014691;28;20443;-89
2022/10/27 09:36:00;;;;;;;4.22;2.42;;;18.70;75.60;;;;;;5016187;28;20029;-90
2022/10/27 09:38:27;;;;;;;4.90;2.78;;;18.70;75.90;;;;;;5014789;28;20424;-91
2022/10/27 09:40:53;;;;;;;3.38;1.67;;;18.80;74.90;;;;;;5014827;28;20025;-90
2022/10/27 09:43:23;;;;;;;3.17;1.92;;;18.80;75.30;;;;;;5014488;28;20022;-90
2022/10/27 09:46:01;;;;;;;3.95;2.20;;;18.90;75.40;;;;;;4997855;28;20049;-90
2022/10/27 09:48:27;;;;;;;7.72;2.05;;;19.00;74.90;;;;;;5014371;28;20068;-90
2022/10/27 09:51:12;;;;;;;4.78;1.95;;;19.00;74.70;;;;;;4997838;28;20033;-90
2022/10/27 09:53:42;;;;;;;3.83;1.80;;;19.00;74.30;;;;;;4997782;28;20022;-90
2022/10/27 09:56:14;;;;;;;3.95;2.00;;;19.10;73.80;;;;;;5053437;28;20025;-89
2022/10/27 09:59:01;;;;;;;4.38;2.00;;;19.00;73.20;;;;;;5037268;28;20016;-89
2022/10/27 10:01:48;;;;;;;4.35;1.70;;;19.20;72.90;;;;;;5051012;28;20033;-91
2022/10/27 10:04:50;;;;;;;4.75;2.00;;;19.20;72.50;;;;;;5037166;28;20076;-90
2022/10/27 10:07:27;;;;;;;4.90;2.08;;;19.20;72.80;;;;;;4954703;29;20511;-89
2022/10/27 10:10:23;;;;;;;2.78;1.65;;;19.20;73.20;;;;;;5024924;28;20474;-90
2022/10/27 10:13:00;;;;;;;2.97;1.50;;;19.20;71.20;;;;;;5027649;28;20040;-90
2022/10/27 10:15:26;;;;;;;5.57;1.52;;;19.20;72.70;;;;;;5037105;28;20037;-90
2022/10/27 10:17:58;;;;;;;6.10;1.23;;;19.20;72.10;;;;;;5053420;28;20028;-90
2022/10/27 10:20:34;;;;;;;5.30;1.63;;;19.30;71.10;;;;;;5053143;28;20056;-90
2022/10/27 10:23:02;;;;;;;3.00;1.13;;;19.40;70.30;;;;;;5053673;28;20107;-89
2022/10/27 10:25:32;;;;;;;5.32;1.73;;;19.40;71.50;;;;;;5053441;28;20021;-89
2022/10/27 10:28:00;;;;;;;2.75;1.48;;;19.50;71.20;;;;;;5061860;28;20025;-90
2022/10/27 10:30:26;;;;;;;2.10;1.40;;;19.60;70.30;;;;;;5063023;28;20013;-90
2022/10/27 10:32:56;;;;;;;4.47;1.70;;;19.70;69.50;;;;;;5053539;28;20025;-89
2022/10/27 10:35:48;;;;;;;3.75;1.50;;;19.70;69.90;;;;;;5053685;28;20025;-89
2022/10/27 10:38:22;;;;;;;3.10;1.77;;;19.90;70.30;;;;;;5053125;28;20051;-90
2022/10/27 10:41:11;;;;;;;2.55;1.33;;;19.90;69.50;;;;;;5036344;28;20033;-89
2022/10/27 10:43:38;;;;;;;3.65;1.55;;;19.90;70.00;;;;;;5053016;28;20039;-90
2022/10/27 10:46:05;;;;;;;2.80;1.30;;;20.00;71.00;;;;;;5036100;28;20032;-89
2022/10/27 10:48:46;;;;;;;4.93;1.55;;;20.00;69.00;;;;;;5019718;28;20061;-90
2022/10/27 10:51:22;;;;;;;5.18;1.90;;;19.90;69.70;;;;;;5052552;28;20116;-90
2022/10/27 10:53:50;;;;;;;5.63;1.83;;;19.90;69.40;;;;;;5035700;28;20032;-90
2022/10/27 10:56:26;;;;;;;4.47;1.48;;;19.90;69.50;;;;;;5053056;28;20486;-90
2022/10/27 10:59:16;;;;;;;3.00;1.40;;;19.90;69.50;;;;;;5052723;28;20024;-90
2022/10/27 11:01:54;;;;;;;5.63;1.40;;;20.00;69.10;;;;;;5026006;28;20068;-90
2022/10/27 11:04:38;;;;;;;4.38;1.30;;;20.00;70.20;;;;;;5032777;28;20060;-90
2022/10/27 11:07:13;;;;;;;2.28;1.25;;;20.00;70.20;;;;;;5034022;28;20056;-91
2022/10/27 11:09:50;;;;;;;3.35;1.45;;;20.00;70.10;;;;;;5032966;28;20022;-90
2022/10/27 11:12:25;;;;;;;2.70;1.48;;;20.10;70.70;;;;;;5032999;28;20048;-90
2022/10/27 11:14:52;;;;;;;3.03;1.60;;;20.10;68.40;;;;;;5033017;28;20037;-91
2022/10/27 11:17:20;;;;;;;2.92;1.33;;;20.10;70.10;;;;;;4983392;28;20105;-90
2022/10/27 11:19:46;;;;;;;2.20;1.30;;;20.20;69.70;;;;;;5033295;28;20040;-89
2022/10/27 11:22:17;;;;;;;4.15;1.50;;;20.20;68.40;;;;;;5033079;28;20034;-90
2022/10/27 11:24:58;;;;;;;3.03;1.30;;;20.30;69.40;;;;;;5015152;28;20391;-89
2022/10/27 11:27:26;;;;;;;3.10;1.42;;;20.30;68.80;;;;;;5030634;28;20018;-90
2022/10/27 11:30:02;;;;;;;6.07;1.50;;;20.30;68.30;;;;;;5032028;28;20022;-90
2022/10/27 11:32:40;;;;;;;1.58;1.10;;;20.30;67.20;;;;;;5033830;28;20101;-90
2022/10/27 11:35:34;;;;;;;4.75;1.50;;;20.30;68.30;;;;;;5032178;28;20049;-90
2022/10/27 11:38:32;;;;;;;5.63;1.50;;;20.40;68.10;;;;;;5024323;28;20053;-90
2022/10/27 11:41:24;;;;;;;4.63;1.38;;;20.40;68.30;;;;;;4947867;28;20284;-89
2022/10/27 11:44:15;;;;;;;3.90;1.23;;;20.50;68.00;;;;;;5035454;28;20025;-90
2022/10/27 11:47:19;;;;;;;2.15;1.50;;;20.50;67.40;;;;;;5034696;28;20029;-90
2022/10/27 11:49:54;;;;;;;4.45;1.45;;;20.50;67.90;;;;;;5035523;28;20051;-90
2022/10/27 11:52:46;;;;;;;3.38;1.30;;;20.50;68.70;;;;;;5035343;28;20021;-91
2022/10/27 11:55:15;;;;;;;4.38;1.73;;;20.50;68.80;;;;;;5005457;28;20041;-90
2022/10/27 11:57:55;;;;;;;3.95;1.50;;;20.50;69.80;;;;;;5036563;28;20017;-90
2022/10/27 12:00:24;;;;;;;2.25;1.20;;;20.50;69.90;;;;;;5035837;28;20026;-90
2022/10/27 12:02:55;;;;;;;6.10;1.40;;;20.50;69.20;;;;;;5035897;28;20128;-90
2022/10/27 12:05:27;;;;;;;4.85;2.13;;;20.50;69.40;;;;;;5036267;28;20052;-91
2022/10/27 12:08:11;;;;;;;3.72;1.27;;;20.60;69.60;;;;;;5035792;28;20040;-90
2022/10/27 12:10:59;;;;;;;4.80;1.42;;;20.70;68.90;;;;;;5035669;28;20032;-90
2022/10/27 12:13:56;;;;;;;3.50;1.40;;;20.70;68.30;;;;;;5036733;28;20089;-90
2022/10/27 12:16:41;;;;;;;4.20;1.50;;;20.60;67.90;;;;;;4991476;28;20040;-89
2022/10/27 12:19:28;;;;;;;4.43;1.35;;;20.50;67.60;;;;;;5035989;28;20036;-90
2022/10/27 12:22:13;;;;;;;4.15;1.52;;;20.50;68.90;;;;;;5035703;28;20053;-90
2022/10/27 12:25:00;;;;;;;2.95;1.60;;;20.50;69.50;;;;;;5035310;28;20029;-90
2022/10/27 12:27:34;;;;;;;5.68;1.75;;;20.50;70.00;;;;;;5035367;28;20400;-90
2022/10/27 12:30:08;;;;;;;3.70;1.80;;;20.50;69.90;;;;;;5035325;28;20028;-90
2022/10/27 12:32:41;;;;;;;5.95;2.08;;;20.50;70.40;;;;;;5034738;28;20117;-90
2022/10/27 12:35:13;;;;;;;5.60;2.50;;;20.50;70.80;;;;;;5034485;28;20471;-90
2022/10/27 12:37:57;;;;;;;6.72;2.50;;;20.40;70.90;;;;;;5034681;28;20022;-90
2022/10/27 12:40:48;;;;;;;8.02;2.67;;;20.40;71.20;;;;;;5034418;28;20033;-90
2022/10/27 12:43:27;;;;;;;5.78;2.30;;;20.40;70.70;;;;;;5035645;28;20079;-90
2022/10/27 12:46:11;;;;;;;7.97;2.30;;;20.40;70.60;;;;;;5034487;28;20108;-90
2022/10/27 12:48:43;;;;;;;13.27;3.67;;;20.40;70.70;;;;;;5034955;28;20036;-90
2022/10/27 12:51:31;;;;;;;6.80;2.20;;;20.40;71.10;;;;;;5033373;28;20581;-90
2022/10/27 12:55:00;;;;;;;6.78;2.47;;;20.50;70.70;;;;;;5032834;28;20017;-90
2022/10/27 12:57:57;;;;;;;5.50;2.20;;;20.50;71.00;;;;;;4975783;28;20512;-91
2022/10/27 13:00:25;;;;;;;7.20;2.75;;;20.50;71.00;;;;;;4959070;28;20026;-90
2022/10/27 13:03:12;;;;;;;4.82;2.40;;;20.50;71.40;;;;;;5028386;28;20386;-90
2022/10/27 13:06:10;;;;;;;5.13;2.35;;;20.50;71.10;;;;;;5054918;28;20128;-89
2022/10/27 13:09:04;;;;;;;7.85;2.30;;;20.50;71.00;;;;;;5036221;28;20111;-89
2022/10/27 13:12:05;;;;;;;6.28;2.55;;;20.50;70.60;;;;;;5054683;28;20027;-90
2022/10/27 13:14:52;;;;;;;5.50;1.90;;;20.40;71.00;;;;;;5005383;28;20120;-89
2022/10/27 13:17:42;;;;;;;6.22;2.13;;;20.40;71.40;;;;;;5054521;28;20021;-89
2022/10/27 13:20:26;;;;;;;5.10;2.15;;;20.40;71.80;;;;;;5054323;28;20029;-89
2022/10/27 13:23:00;;;;;;;6.18;2.10;;;20.50;71.70;;;;;;5054532;28;20029;-89
2022/10/27 13:25:42;;;;;;;4.47;2.28;;;20.40;71.90;;;;;;5054107;28;20021;-89
2022/10/27 13:28:25;;;;;;;7.65;2.47;;;20.50;71.70;;;;;;5054448;28;20025;-90
2022/10/27 13:30:56;;;;;;;5.20;2.50;;;20.50;71.70;;;;;;5054357;28;20017;-89
2022/10/27 13:33:36;;;;;;;2.90;2.10;;;20.50;71.30;;;;;;5054029;28;20025;-90
2022/10/27 13:36:19;;;;;;;6.18;2.25;;;20.50;71.40;;;;;;5021664;28;20029;-89
2022/10/27 13:38:45;;;;;;;6.82;2.10;;;20.60;71.90;;;;;;5021890;28;20497;-90
2022/10/27 13:41:45;;;;;;;3.55;2.08;;;20.60;71.40;;;;;;5005093;28;20044;-90